Pagina principale
METAR-TAF:

METAR-TAF

Aeroporti :

Yüksekova, Turchia

latitudine: 37-33-06N, longitudine: 44-14-01E, altezza: 1950 m

Osservazione

Il bollettino è stato emesso 12 ore e 46 minuti fa, alle 12:50 UTC
Vento 16 kt da sud
Temperature 22°C
Umidità 19%
Pressione 1019 hPa
Visibilità 10 km o più
nessuna nube inferiore a 1500 m e nessun cumulonembo

METAR: LTCW 301250Z 19016KT CAVOK 22/M03 Q1019

Ora: 04:36 (01:36 UTC)

Previsione

Il bollettino è stato emesso 2 ore e 56 minuti fa, alle 22:40 UTC
Previsione valida dal 31 alle 00 UTC al 31 alle 09 UTC
Vento 2 kt da direzioni variabili
Visibilità 10 km o più
nessuna nube inferiore a 1500 m e nessun cumulonembo

TAF: LTCW 302240Z 3100/3109 VRB02KT CAVOK

Osservazioni e previsioni meteorologiche di più di 4000 aeroporti (messaggi METAR e TAF).

Le stazioni disponibili sono rappresentate dai dischi gialli e rossi sulla carta.

Puntare il mouse per vedere il nome della stazione.

Clicca sopra per visualizzare le osservazioni e previsioni meteorologiche.

Per cambiare la mappa : fare clic sui pulsanti verdi con una croce nera per ingrandire, il pulsante verde con un trattino per diminuire, o sulla freccia verde per le mappe adiacenti.


METAR-TAF: